sensor_id;sensor_type;location;lat;lon;timestamp;P1;durP1;ratioP1;P2;durP2;ratioP2
18883;SDS011;9574;47.282;9.640;2023-05-10T00:02:01;0.60;;;0.60;;
18883;SDS011;9574;47.282;9.640;2023-05-10T00:04:28;0.83;;;0.70;;
18883;SDS011;9574;47.282;9.640;2023-05-10T00:06:56;1.67;;;1.10;;
18883;SDS011;9574;47.282;9.640;2023-05-10T00:09:23;1.73;;;1.20;;
18883;SDS011;9574;47.282;9.640;2023-05-10T00:11:50;1.10;;;0.93;;
18883;SDS011;9574;47.282;9.640;2023-05-10T00:14:17;2.77;;;0.90;;
18883;SDS011;9574;47.282;9.640;2023-05-10T00:16:44;0.70;;;0.70;;
18883;SDS011;9574;47.282;9.640;2023-05-10T00:19:11;0.60;;;0.60;;
18883;SDS011;9574;47.282;9.640;2023-05-10T00:21:38;0.77;;;0.77;;
18883;SDS011;9574;47.282;9.640;2023-05-10T00:24:07;0.70;;;0.70;;
18883;SDS011;9574;47.282;9.640;2023-05-10T00:26:34;2.90;;;1.37;;
18883;SDS011;9574;47.282;9.640;2023-05-10T00:29:01;1.50;;;1.40;;
18883;SDS011;9574;47.282;9.640;2023-05-10T00:31:28;1.63;;;0.80;;
18883;SDS011;9574;47.282;9.640;2023-05-10T00:33:55;3.10;;;1.20;;
18883;SDS011;9574;47.282;9.640;2023-05-10T00:36:22;1.67;;;1.20;;
18883;SDS011;9574;47.282;9.640;2023-05-10T00:38:49;1.77;;;0.80;;
18883;SDS011;9574;47.282;9.640;2023-05-10T00:41:17;1.67;;;0.90;;
18883;SDS011;9574;47.282;9.640;2023-05-10T00:43:46;1.87;;;0.80;;
18883;SDS011;9574;47.282;9.640;2023-05-10T00:46:13;0.70;;;0.70;;
18883;SDS011;9574;47.282;9.640;2023-05-10T00:48:41;3.37;;;0.87;;
18883;SDS011;9574;47.282;9.640;2023-05-10T00:51:08;0.63;;;0.63;;
18883;SDS011;9574;47.282;9.640;2023-05-10T00:53:36;1.17;;;0.70;;
18883;SDS011;9574;47.282;9.640;2023-05-10T00:56:03;0.73;;;0.70;;
18883;SDS011;9574;47.282;9.640;2023-05-10T00:58:31;0.80;;;0.77;;
18883;SDS011;9574;47.282;9.640;2023-05-10T01:00:58;2.13;;;0.80;;
18883;SDS011;9574;47.282;9.640;2023-05-10T01:03:27;0.80;;;0.80;;
18883;SDS011;9574;47.282;9.640;2023-05-10T01:05:55;0.90;;;0.90;;
18883;SDS011;9574;47.282;9.640;2023-05-10T01:08:22;0.70;;;0.70;;
18883;SDS011;9574;47.282;9.640;2023-05-10T01:10:49;0.67;;;0.67;;
18883;SDS011;9574;47.282;9.640;2023-05-10T01:13:18;0.60;;;0.60;;
18883;SDS011;9574;47.282;9.640;2023-05-10T01:15:56;0.60;;;0.60;;
18883;SDS011;9574;47.282;9.640;2023-05-10T01:18:25;0.60;;;0.60;;
18883;SDS011;9574;47.282;9.640;2023-05-10T01:20:55;0.70;;;0.70;;
18883;SDS011;9574;47.282;9.640;2023-05-10T01:23:36;0.70;;;0.70;;
18883;SDS011;9574;47.282;9.640;2023-05-10T01:26:39;0.50;;;0.50;;
18883;SDS011;9574;47.282;9.640;2023-05-10T01:29:39;0.60;;;0.60;;
18883;SDS011;9574;47.282;9.640;2023-05-10T01:32:27;0.43;;;0.43;;
18883;SDS011;9574;47.282;9.640;2023-05-10T01:35:02;0.67;;;0.67;;
18883;SDS011;9574;47.282;9.640;2023-05-10T01:37:36;0.70;;;0.67;;
18883;SDS011;9574;47.282;9.640;2023-05-10T01:40:10;0.70;;;0.70;;
18883;SDS011;9574;47.282;9.640;2023-05-10T01:42:46;0.97;;;0.53;;
18883;SDS011;9574;47.282;9.640;2023-05-10T01:45:18;1.33;;;0.80;;
18883;SDS011;9574;47.282;9.640;2023-05-10T01:47:55;0.50;;;0.50;;
18883;SDS011;9574;47.282;9.640;2023-05-10T01:50:30;0.60;;;0.60;;
18883;SDS011;9574;47.282;9.640;2023-05-10T01:52:59;1.33;;;0.80;;
18883;SDS011;9574;47.282;9.640;2023-05-10T01:55:29;0.63;;;0.63;;
18883;SDS011;9574;47.282;9.640;2023-05-10T01:58:01;0.60;;;0.60;;
18883;SDS011;9574;47.282;9.640;2023-05-10T02:00:33;5.13;;;0.80;;
18883;SDS011;9574;47.282;9.640;2023-05-10T02:03:04;0.80;;;0.80;;
18883;SDS011;9574;47.282;9.640;2023-05-10T02:05:33;0.93;;;0.60;;
18883;SDS011;9574;47.282;9.640;2023-05-10T02:08:01;0.70;;;0.70;;
18883;SDS011;9574;47.282;9.640;2023-05-10T02:10:31;1.13;;;0.70;;
18883;SDS011;9574;47.282;9.640;2023-05-10T02:12:59;2.30;;;0.97;;
18883;SDS011;9574;47.282;9.640;2023-05-10T02:15:27;0.77;;;0.77;;
18883;SDS011;9574;47.282;9.640;2023-05-10T02:17:55;0.83;;;0.70;;
18883;SDS011;9574;47.282;9.640;2023-05-10T02:20:24;0.80;;;0.80;;
18883;SDS011;9574;47.282;9.640;2023-05-10T02:22:53;0.70;;;0.70;;
18883;SDS011;9574;47.282;9.640;2023-05-10T02:25:21;0.77;;;0.70;;
18883;SDS011;9574;47.282;9.640;2023-05-10T02:27:49;0.60;;;0.60;;
18883;SDS011;9574;47.282;9.640;2023-05-10T02:30:20;0.67;;;0.67;;
18883;SDS011;9574;47.282;9.640;2023-05-10T02:32:48;0.67;;;0.67;;
18883;SDS011;9574;47.282;9.640;2023-05-10T02:35:16;0.60;;;0.60;;
18883;SDS011;9574;47.282;9.640;2023-05-10T02:37:44;3.60;;;0.80;;
18883;SDS011;9574;47.282;9.640;2023-05-10T02:40:12;0.57;;;0.50;;
18883;SDS011;9574;47.282;9.640;2023-05-10T02:42:42;1.97;;;0.60;;
18883;SDS011;9574;47.282;9.640;2023-05-10T02:45:12;4.27;;;0.80;;
18883;SDS011;9574;47.282;9.640;2023-05-10T02:47:41;0.70;;;0.70;;
18883;SDS011;9574;47.282;9.640;2023-05-10T02:50:09;1.80;;;1.10;;
18883;SDS011;9574;47.282;9.640;2023-05-10T02:52:39;0.70;;;0.70;;
18883;SDS011;9574;47.282;9.640;2023-05-10T02:55:11;0.83;;;0.80;;
18883;SDS011;9574;47.282;9.640;2023-05-10T02:57:42;0.80;;;0.60;;
18883;SDS011;9574;47.282;9.640;2023-05-10T03:00:12;4.20;;;0.70;;
18883;SDS011;9574;47.282;9.640;2023-05-10T03:02:39;4.37;;;0.80;;
18883;SDS011;9574;47.282;9.640;2023-05-10T03:05:07;0.80;;;0.80;;
18883;SDS011;9574;47.282;9.640;2023-05-10T03:07:34;0.60;;;0.60;;
18883;SDS011;9574;47.282;9.640;2023-05-10T03:10:02;2.80;;;0.83;;
18883;SDS011;9574;47.282;9.640;2023-05-10T03:12:33;0.70;;;0.70;;
18883;SDS011;9574;47.282;9.640;2023-05-10T03:15:13;2.13;;;0.80;;
18883;SDS011;9574;47.282;9.640;2023-05-10T03:17:47;1.63;;;0.80;;
18883;SDS011;9574;47.282;9.640;2023-05-10T03:20:21;2.10;;;0.70;;
18883;SDS011;9574;47.282;9.640;2023-05-10T03:22:53;0.53;;;0.53;;
18883;SDS011;9574;47.282;9.640;2023-05-10T03:25:26;1.13;;;0.63;;
18883;SDS011;9574;47.282;9.640;2023-05-10T03:27:57;1.00;;;0.70;;
18883;SDS011;9574;47.282;9.640;2023-05-10T03:30:27;0.77;;;0.77;;
18883;SDS011;9574;47.282;9.640;2023-05-10T03:32:55;1.00;;;0.90;;
18883;SDS011;9574;47.282;9.640;2023-05-10T03:35:24;0.83;;;0.77;;
18883;SDS011;9574;47.282;9.640;2023-05-10T03:37:51;3.43;;;0.83;;
18883;SDS011;9574;47.282;9.640;2023-05-10T03:40:18;0.60;;;0.60;;
18883;SDS011;9574;47.282;9.640;2023-05-10T03:42:45;0.80;;;0.80;;
18883;SDS011;9574;47.282;9.640;2023-05-10T03:45:13;1.13;;;0.80;;
18883;SDS011;9574;47.282;9.640;2023-05-10T03:47:40;1.57;;;0.80;;
18883;SDS011;9574;47.282;9.640;2023-05-10T03:50:07;0.80;;;0.70;;
18883;SDS011;9574;47.282;9.640;2023-05-10T03:52:35;0.90;;;0.90;;
18883;SDS011;9574;47.282;9.640;2023-05-10T03:55:04;1.07;;;0.77;;
18883;SDS011;9574;47.282;9.640;2023-05-10T03:57:32;0.70;;;0.70;;
18883;SDS011;9574;47.282;9.640;2023-05-10T03:59:59;1.37;;;1.27;;
18883;SDS011;9574;47.282;9.640;2023-05-10T04:02:27;0.90;;;0.90;;
18883;SDS011;9574;47.282;9.640;2023-05-10T04:04:54;1.90;;;1.80;;
18883;SDS011;9574;47.282;9.640;2023-05-10T04:07:21;0.60;;;0.60;;
18883;SDS011;9574;47.282;9.640;2023-05-10T04:09:49;1.23;;;0.60;;
18883;SDS011;9574;47.282;9.640;2023-05-10T04:12:16;3.30;;;1.30;;
18883;SDS011;9574;47.282;9.640;2023-05-10T04:14:43;1.30;;;1.20;;
18883;SDS011;9574;47.282;9.640;2023-05-10T04:17:10;4.30;;;1.40;;
18883;SDS011;9574;47.282;9.640;2023-05-10T04:19:38;1.03;;;1.03;;
18883;SDS011;9574;47.282;9.640;2023-05-10T04:22:05;0.73;;;0.73;;
18883;SDS011;9574;47.282;9.640;2023-05-10T04:24:32;3.00;;;0.97;;
18883;SDS011;9574;47.282;9.640;2023-05-10T04:26:59;0.60;;;0.60;;
18883;SDS011;9574;47.282;9.640;2023-05-10T04:29:26;0.60;;;0.60;;
18883;SDS011;9574;47.282;9.640;2023-05-10T04:31:53;0.70;;;0.70;;
18883;SDS011;9574;47.282;9.640;2023-05-10T04:34:21;0.87;;;0.73;;
18883;SDS011;9574;47.282;9.640;2023-05-10T04:36:50;0.70;;;0.70;;
18883;SDS011;9574;47.282;9.640;2023-05-10T04:39:16;0.70;;;0.70;;
18883;SDS011;9574;47.282;9.640;2023-05-10T04:41:43;1.87;;;0.90;;
18883;SDS011;9574;47.282;9.640;2023-05-10T04:44:10;0.70;;;0.70;;
18883;SDS011;9574;47.282;9.640;2023-05-10T04:46:37;1.67;;;1.57;;
18883;SDS011;9574;47.282;9.640;2023-05-10T04:49:04;0.70;;;0.70;;
18883;SDS011;9574;47.282;9.640;2023-05-10T04:51:31;1.10;;;0.90;;
18883;SDS011;9574;47.282;9.640;2023-05-10T04:54:00;0.93;;;0.90;;
18883;SDS011;9574;47.282;9.640;2023-05-10T04:56:27;3.90;;;0.97;;
18883;SDS011;9574;47.282;9.640;2023-05-10T04:58:54;0.90;;;0.90;;
18883;SDS011;9574;47.282;9.640;2023-05-10T05:01:20;0.70;;;0.70;;
18883;SDS011;9574;47.282;9.640;2023-05-10T05:03:48;0.90;;;0.90;;
18883;SDS011;9574;47.282;9.640;2023-05-10T05:06:15;1.10;;;1.00;;
18883;SDS011;9574;47.282;9.640;2023-05-10T05:08:42;0.90;;;0.90;;
18883;SDS011;9574;47.282;9.640;2023-05-10T05:11:10;1.23;;;0.93;;
18883;SDS011;9574;47.282;9.640;2023-05-10T05:13:37;1.03;;;0.93;;
18883;SDS011;9574;47.282;9.640;2023-05-10T05:16:05;2.93;;;0.97;;
18883;SDS011;9574;47.282;9.640;2023-05-10T05:18:32;1.83;;;1.07;;
18883;SDS011;9574;47.282;9.640;2023-05-10T05:20:59;2.33;;;1.20;;
18883;SDS011;9574;47.282;9.640;2023-05-10T05:23:26;1.20;;;1.10;;
18883;SDS011;9574;47.282;9.640;2023-05-10T05:25:53;0.90;;;0.90;;
18883;SDS011;9574;47.282;9.640;2023-05-10T05:28:21;1.47;;;1.20;;
18883;SDS011;9574;47.282;9.640;2023-05-10T05:30:48;1.80;;;1.30;;
18883;SDS011;9574;47.282;9.640;2023-05-10T05:33:15;1.80;;;1.70;;
18883;SDS011;9574;47.282;9.640;2023-05-10T05:35:42;1.97;;;1.67;;
18883;SDS011;9574;47.282;9.640;2023-05-10T05:38:12;1.43;;;1.33;;
18883;SDS011;9574;47.282;9.640;2023-05-10T05:40:39;0.90;;;0.90;;
18883;SDS011;9574;47.282;9.640;2023-05-10T05:43:06;4.10;;;1.20;;
18883;SDS011;9574;47.282;9.640;2023-05-10T05:45:35;4.27;;;1.00;;
18883;SDS011;9574;47.282;9.640;2023-05-10T05:48:02;3.50;;;1.10;;
18883;SDS011;9574;47.282;9.640;2023-05-10T05:50:29;1.17;;;1.10;;
18883;SDS011;9574;47.282;9.640;2023-05-10T05:52:56;4.93;;;1.20;;
18883;SDS011;9574;47.282;9.640;2023-05-10T05:55:23;0.90;;;0.90;;
18883;SDS011;9574;47.282;9.640;2023-05-10T05:57:50;3.03;;;1.00;;
18883;SDS011;9574;47.282;9.640;2023-05-10T06:00:18;1.10;;;1.00;;
18883;SDS011;9574;47.282;9.640;2023-05-10T06:02:47;1.20;;;1.00;;
18883;SDS011;9574;47.282;9.640;2023-05-10T06:05:14;2.60;;;1.47;;
18883;SDS011;9574;47.282;9.640;2023-05-10T06:07:41;1.43;;;1.30;;
18883;SDS011;9574;47.282;9.640;2023-05-10T06:10:08;3.23;;;1.10;;
18883;SDS011;9574;47.282;9.640;2023-05-10T06:12:36;1.00;;;1.00;;
18883;SDS011;9574;47.282;9.640;2023-05-10T06:15:03;1.30;;;1.20;;
18883;SDS011;9574;47.282;9.640;2023-05-10T06:17:30;1.33;;;1.23;;
18883;SDS011;9574;47.282;9.640;2023-05-10T06:19:58;3.13;;;1.30;;
18883;SDS011;9574;47.282;9.640;2023-05-10T06:22:25;0.83;;;0.83;;
18883;SDS011;9574;47.282;9.640;2023-05-10T06:24:52;1.13;;;1.03;;
18883;SDS011;9574;47.282;9.640;2023-05-10T06:27:19;2.00;;;1.20;;
18883;SDS011;9574;47.282;9.640;2023-05-10T06:29:47;0.93;;;0.83;;
18883;SDS011;9574;47.282;9.640;2023-05-10T06:32:14;1.27;;;1.10;;
18883;SDS011;9574;47.282;9.640;2023-05-10T06:34:41;2.63;;;1.00;;
18883;SDS011;9574;47.282;9.640;2023-05-10T06:37:09;1.37;;;1.20;;
18883;SDS011;9574;47.282;9.640;2023-05-10T06:39:36;2.07;;;1.40;;
18883;SDS011;9574;47.282;9.640;2023-05-10T06:42:03;3.30;;;1.73;;
18883;SDS011;9574;47.282;9.640;2023-05-10T06:44:30;5.40;;;1.53;;
18883;SDS011;9574;47.282;9.640;2023-05-10T06:46:58;2.97;;;2.00;;
18883;SDS011;9574;47.282;9.640;2023-05-10T06:49:24;1.67;;;1.57;;
18883;SDS011;9574;47.282;9.640;2023-05-10T06:51:51;2.37;;;1.60;;
18883;SDS011;9574;47.282;9.640;2023-05-10T06:54:20;2.20;;;1.30;;
18883;SDS011;9574;47.282;9.640;2023-05-10T06:56:48;2.47;;;1.30;;
18883;SDS011;9574;47.282;9.640;2023-05-10T06:59:15;2.70;;;1.50;;
18883;SDS011;9574;47.282;9.640;2023-05-10T07:01:44;2.63;;;1.00;;
18883;SDS011;9574;47.282;9.640;2023-05-10T07:04:11;0.97;;;0.97;;
18883;SDS011;9574;47.282;9.640;2023-05-10T07:06:38;2.50;;;0.70;;
18883;SDS011;9574;47.282;9.640;2023-05-10T07:09:05;2.07;;;1.00;;
18883;SDS011;9574;47.282;9.640;2023-05-10T07:11:34;3.70;;;0.77;;
18883;SDS011;9574;47.282;9.640;2023-05-10T07:14:02;1.20;;;0.63;;
18883;SDS011;9574;47.282;9.640;2023-05-10T07:16:29;2.33;;;0.80;;
18883;SDS011;9574;47.282;9.640;2023-05-10T07:18:56;0.80;;;0.70;;
18883;SDS011;9574;47.282;9.640;2023-05-10T07:21:23;5.33;;;0.90;;
18883;SDS011;9574;47.282;9.640;2023-05-10T07:23:53;1.10;;;1.00;;
18883;SDS011;9574;47.282;9.640;2023-05-10T07:26:20;0.97;;;0.87;;
18883;SDS011;9574;47.282;9.640;2023-05-10T07:28:48;0.80;;;0.80;;
18883;SDS011;9574;47.282;9.640;2023-05-10T07:31:15;1.83;;;0.93;;
18883;SDS011;9574;47.282;9.640;2023-05-10T07:33:42;1.10;;;1.00;;
18883;SDS011;9574;47.282;9.640;2023-05-10T07:36:09;1.70;;;1.10;;
18883;SDS011;9574;47.282;9.640;2023-05-10T07:38:36;1.40;;;1.30;;
18883;SDS011;9574;47.282;9.640;2023-05-10T07:41:04;1.67;;;0.90;;
18883;SDS011;9574;47.282;9.640;2023-05-10T07:43:31;1.70;;;1.03;;
18883;SDS011;9574;47.282;9.640;2023-05-10T07:46:00;3.97;;;0.77;;
18883;SDS011;9574;47.282;9.640;2023-05-10T07:48:27;0.77;;;0.70;;
18883;SDS011;9574;47.282;9.640;2023-05-10T07:50:53;2.93;;;0.80;;
18883;SDS011;9574;47.282;9.640;2023-05-10T07:53:20;0.77;;;0.77;;
18883;SDS011;9574;47.282;9.640;2023-05-10T07:55:49;0.70;;;0.70;;
18883;SDS011;9574;47.282;9.640;2023-05-10T07:58:17;0.60;;;0.60;;
18883;SDS011;9574;47.282;9.640;2023-05-10T08:00:44;1.33;;;0.70;;
18883;SDS011;9574;47.282;9.640;2023-05-10T08:03:12;0.60;;;0.60;;
18883;SDS011;9574;47.282;9.640;2023-05-10T08:05:39;0.70;;;0.70;;
18883;SDS011;9574;47.282;9.640;2023-05-10T08:08:06;1.43;;;0.90;;
18883;SDS011;9574;47.282;9.640;2023-05-10T08:10:33;0.63;;;0.50;;
18883;SDS011;9574;47.282;9.640;2023-05-10T08:13:00;1.83;;;0.80;;
18883;SDS011;9574;47.282;9.640;2023-05-10T08:15:27;0.77;;;0.77;;
18883;SDS011;9574;47.282;9.640;2023-05-10T08:17:54;1.67;;;0.70;;
18883;SDS011;9574;47.282;9.640;2023-05-10T08:20:23;1.37;;;0.67;;
18883;SDS011;9574;47.282;9.640;2023-05-10T08:22:50;0.80;;;0.80;;
18883;SDS011;9574;47.282;9.640;2023-05-10T08:25:17;1.80;;;0.80;;
18883;SDS011;9574;47.282;9.640;2023-05-10T08:27:44;0.60;;;0.60;;
18883;SDS011;9574;47.282;9.640;2023-05-10T08:30:11;0.77;;;0.77;;
18883;SDS011;9574;47.282;9.640;2023-05-10T08:32:38;0.60;;;0.60;;
18883;SDS011;9574;47.282;9.640;2023-05-10T08:35:05;3.13;;;0.73;;
18883;SDS011;9574;47.282;9.640;2023-05-10T08:37:34;0.60;;;0.60;;
18883;SDS011;9574;47.282;9.640;2023-05-10T08:40:01;0.70;;;0.70;;
18883;SDS011;9574;47.282;9.640;2023-05-10T08:42:28;0.57;;;0.57;;
18883;SDS011;9574;47.282;9.640;2023-05-10T08:44:57;0.73;;;0.70;;
18883;SDS011;9574;47.282;9.640;2023-05-10T08:47:25;1.30;;;0.80;;
18883;SDS011;9574;47.282;9.640;2023-05-10T08:49:53;1.03;;;0.83;;
18883;SDS011;9574;47.282;9.640;2023-05-10T08:52:21;0.60;;;0.60;;
18883;SDS011;9574;47.282;9.640;2023-05-10T08:54:53;0.83;;;0.80;;
18883;SDS011;9574;47.282;9.640;2023-05-10T08:57:20;1.67;;;1.00;;
18883;SDS011;9574;47.282;9.640;2023-05-10T08:59:47;0.83;;;0.70;;
18883;SDS011;9574;47.282;9.640;2023-05-10T09:02:14;0.63;;;0.63;;
18883;SDS011;9574;47.282;9.640;2023-05-10T09:04:44;0.70;;;0.70;;
18883;SDS011;9574;47.282;9.640;2023-05-10T09:07:11;1.43;;;1.33;;
18883;SDS011;9574;47.282;9.640;2023-05-10T09:09:38;2.10;;;0.93;;
18883;SDS011;9574;47.282;9.640;2023-05-10T09:12:07;0.63;;;0.63;;
18883;SDS011;9574;47.282;9.640;2023-05-10T09:14:36;0.70;;;0.70;;
18883;SDS011;9574;47.282;9.640;2023-05-10T09:17:04;1.20;;;1.20;;
18883;SDS011;9574;47.282;9.640;2023-05-10T09:19:31;2.40;;;1.10;;
18883;SDS011;9574;47.282;9.640;2023-05-10T09:21:58;0.80;;;0.80;;
18883;SDS011;9574;47.282;9.640;2023-05-10T09:24:29;1.73;;;0.90;;
18883;SDS011;9574;47.282;9.640;2023-05-10T09:26:56;0.73;;;0.73;;
18883;SDS011;9574;47.282;9.640;2023-05-10T09:29:25;0.60;;;0.60;;
18883;SDS011;9574;47.282;9.640;2023-05-10T09:31:52;2.83;;;0.70;;
18883;SDS011;9574;47.282;9.640;2023-05-10T09:34:21;0.80;;;0.80;;
18883;SDS011;9574;47.282;9.640;2023-05-10T09:36:56;1.23;;;0.70;;
18883;SDS011;9574;47.282;9.640;2023-05-10T09:39:32;1.47;;;0.70;;
18883;SDS011;9574;47.282;9.640;2023-05-10T09:42:01;0.70;;;0.70;;
18883;SDS011;9574;47.282;9.640;2023-05-10T09:44:31;0.70;;;0.70;;
18883;SDS011;9574;47.282;9.640;2023-05-10T09:46:59;0.73;;;0.70;;
18883;SDS011;9574;47.282;9.640;2023-05-10T09:49:26;0.70;;;0.70;;
18883;SDS011;9574;47.282;9.640;2023-05-10T09:51:59;0.70;;;0.70;;
18883;SDS011;9574;47.282;9.640;2023-05-10T09:54:28;0.93;;;0.93;;
18883;SDS011;9574;47.282;9.640;2023-05-10T09:56:55;0.70;;;0.70;;
18883;SDS011;9574;47.282;9.640;2023-05-10T09:59:24;0.60;;;0.60;;
18883;SDS011;9574;47.282;9.640;2023-05-10T10:01:53;0.67;;;0.67;;
18883;SDS011;9574;47.282;9.640;2023-05-10T10:04:22;2.13;;;0.80;;
18883;SDS011;9574;47.282;9.640;2023-05-10T10:06:58;1.80;;;1.07;;
18883;SDS011;9574;47.282;9.640;2023-05-10T10:09:26;2.17;;;1.97;;
18883;SDS011;9574;47.282;9.640;2023-05-10T10:11:54;0.60;;;0.60;;
18883;SDS011;9574;47.282;9.640;2023-05-10T10:14:22;0.80;;;0.77;;
18883;SDS011;9574;47.282;9.640;2023-05-10T10:16:49;0.70;;;0.70;;
18883;SDS011;9574;47.282;9.640;2023-05-10T10:19:18;1.00;;;1.00;;
18883;SDS011;9574;47.282;9.640;2023-05-10T10:21:45;1.93;;;0.83;;
18883;SDS011;9574;47.282;9.640;2023-05-10T10:24:12;1.83;;;0.80;;
18883;SDS011;9574;47.282;9.640;2023-05-10T10:26:39;1.70;;;0.77;;
18883;SDS011;9574;47.282;9.640;2023-05-10T10:29:10;2.67;;;1.00;;
18883;SDS011;9574;47.282;9.640;2023-05-10T10:31:47;0.53;;;0.53;;
18883;SDS011;9574;47.282;9.640;2023-05-10T10:34:24;0.50;;;0.50;;
18883;SDS011;9574;47.282;9.640;2023-05-10T10:36:53;0.67;;;0.63;;
18883;SDS011;9574;47.282;9.640;2023-05-10T10:39:21;3.53;;;0.90;;
18883;SDS011;9574;47.282;9.640;2023-05-10T10:41:50;0.83;;;0.70;;
18883;SDS011;9574;47.282;9.640;2023-05-10T10:44:34;0.60;;;0.60;;
18883;SDS011;9574;47.282;9.640;2023-05-10T10:50:05;0.80;;;0.80;;
18883;SDS011;9574;47.282;9.640;2023-05-10T10:52:34;0.73;;;0.73;;
18883;SDS011;9574;47.282;9.640;2023-05-10T10:55:03;0.80;;;0.80;;
18883;SDS011;9574;47.282;9.640;2023-05-10T10:57:32;0.80;;;0.60;;
18883;SDS011;9574;47.282;9.640;2023-05-10T11:02:47;2.00;;;0.70;;
18883;SDS011;9574;47.282;9.640;2023-05-10T11:08:15;0.60;;;0.60;;
18883;SDS011;9574;47.282;9.640;2023-05-10T11:10:51;0.70;;;0.70;;
18883;SDS011;9574;47.282;9.640;2023-05-10T11:13:26;2.67;;;0.63;;
18883;SDS011;9574;47.282;9.640;2023-05-10T11:15:55;5.23;;;0.90;;
18883;SDS011;9574;47.282;9.640;2023-05-10T11:18:24;0.87;;;0.87;;
18883;SDS011;9574;47.282;9.640;2023-05-10T11:20:55;3.63;;;0.80;;
18883;SDS011;9574;47.282;9.640;2023-05-10T11:23:28;1.37;;;0.70;;
18883;SDS011;9574;47.282;9.640;2023-05-10T11:25:56;0.70;;;0.70;;
18883;SDS011;9574;47.282;9.640;2023-05-10T11:28:23;1.60;;;0.60;;
18883;SDS011;9574;47.282;9.640;2023-05-10T11:30:51;0.70;;;0.70;;
18883;SDS011;9574;47.282;9.640;2023-05-10T11:33:19;0.80;;;0.80;;
18883;SDS011;9574;47.282;9.640;2023-05-10T11:35:46;0.60;;;0.60;;
18883;SDS011;9574;47.282;9.640;2023-05-10T11:38:15;0.60;;;0.60;;
18883;SDS011;9574;47.282;9.640;2023-05-10T11:40:42;0.63;;;0.60;;
18883;SDS011;9574;47.282;9.640;2023-05-10T11:43:09;0.70;;;0.70;;
18883;SDS011;9574;47.282;9.640;2023-05-10T11:45:37;1.70;;;0.70;;
18883;SDS011;9574;47.282;9.640;2023-05-10T11:48:06;1.07;;;0.90;;
18883;SDS011;9574;47.282;9.640;2023-05-10T11:50:33;0.80;;;0.80;;
18883;SDS011;9574;47.282;9.640;2023-05-10T11:53:00;0.70;;;0.70;;
18883;SDS011;9574;47.282;9.640;2023-05-10T11:55:29;0.80;;;0.70;;
18883;SDS011;9574;47.282;9.640;2023-05-10T11:58:00;0.93;;;0.73;;
18883;SDS011;9574;47.282;9.640;2023-05-10T12:00:28;0.87;;;0.87;;
18883;SDS011;9574;47.282;9.640;2023-05-10T12:02:56;1.10;;;0.73;;
18883;SDS011;9574;47.282;9.640;2023-05-10T12:05:24;0.70;;;0.70;;
18883;SDS011;9574;47.282;9.640;2023-05-10T12:07:51;0.70;;;0.70;;
18883;SDS011;9574;47.282;9.640;2023-05-10T12:10:24;0.67;;;0.67;;
18883;SDS011;9574;47.282;9.640;2023-05-10T12:12:54;0.60;;;0.60;;
18883;SDS011;9574;47.282;9.640;2023-05-10T12:15:23;0.83;;;0.70;;
18883;SDS011;9574;47.282;9.640;2023-05-10T12:17:50;0.70;;;0.70;;
18883;SDS011;9574;47.282;9.640;2023-05-10T12:20:18;0.80;;;0.80;;
18883;SDS011;9574;47.282;9.640;2023-05-10T12:22:47;2.07;;;0.53;;
18883;SDS011;9574;47.282;9.640;2023-05-10T12:25:16;0.73;;;0.60;;
18883;SDS011;9574;47.282;9.640;2023-05-10T12:27:54;0.80;;;0.70;;
18883;SDS011;9574;47.282;9.640;2023-05-10T12:30:23;0.70;;;0.70;;
18883;SDS011;9574;47.282;9.640;2023-05-10T12:32:51;0.83;;;0.83;;
18883;SDS011;9574;47.282;9.640;2023-05-10T12:35:18;0.80;;;0.80;;
18883;SDS011;9574;47.282;9.640;2023-05-10T12:37:47;1.27;;;0.73;;
18883;SDS011;9574;47.282;9.640;2023-05-10T12:40:14;0.70;;;0.70;;
18883;SDS011;9574;47.282;9.640;2023-05-10T12:42:41;1.00;;;0.90;;
18883;SDS011;9574;47.282;9.640;2023-05-10T12:45:11;1.90;;;0.77;;
18883;SDS011;9574;47.282;9.640;2023-05-10T12:47:38;0.63;;;0.60;;
18883;SDS011;9574;47.282;9.640;2023-05-10T12:50:05;0.70;;;0.70;;
18883;SDS011;9574;47.282;9.640;2023-05-10T12:52:33;1.13;;;1.00;;
18883;SDS011;9574;47.282;9.640;2023-05-10T12:55:00;0.60;;;0.60;;
18883;SDS011;9574;47.282;9.640;2023-05-10T12:57:28;0.60;;;0.60;;
18883;SDS011;9574;47.282;9.640;2023-05-10T12:59:55;0.80;;;0.80;;
18883;SDS011;9574;47.282;9.640;2023-05-10T13:02:24;0.90;;;0.90;;
18883;SDS011;9574;47.282;9.640;2023-05-10T13:04:52;1.37;;;1.27;;
18883;SDS011;9574;47.282;9.640;2023-05-10T13:07:19;1.80;;;1.67;;
18883;SDS011;9574;47.282;9.640;2023-05-10T13:09:46;1.87;;;1.10;;
18883;SDS011;9574;47.282;9.640;2023-05-10T13:12:14;1.30;;;1.20;;
18883;SDS011;9574;47.282;9.640;2023-05-10T13:14:42;0.80;;;0.80;;
18883;SDS011;9574;47.282;9.640;2023-05-10T13:17:10;0.60;;;0.60;;
18883;SDS011;9574;47.282;9.640;2023-05-10T13:19:38;1.10;;;0.90;;
18883;SDS011;9574;47.282;9.640;2023-05-10T13:22:05;2.07;;;1.30;;
18883;SDS011;9574;47.282;9.640;2023-05-10T13:24:32;1.93;;;1.30;;
18883;SDS011;9574;47.282;9.640;2023-05-10T13:27:00;1.00;;;0.90;;
18883;SDS011;9574;47.282;9.640;2023-05-10T13:29:27;2.40;;;1.00;;
18883;SDS011;9574;47.282;9.640;2023-05-10T13:31:54;5.13;;;1.30;;
18883;SDS011;9574;47.282;9.640;2023-05-10T13:34:22;1.53;;;1.00;;
18883;SDS011;9574;47.282;9.640;2023-05-10T13:36:51;1.27;;;1.17;;
18883;SDS011;9574;47.282;9.640;2023-05-10T13:39:20;4.23;;;1.40;;
18883;SDS011;9574;47.282;9.640;2023-05-10T13:41:48;3.60;;;2.00;;
18883;SDS011;9574;47.282;9.640;2023-05-10T13:44:15;6.33;;;1.70;;
18883;SDS011;9574;47.282;9.640;2023-05-10T13:46:42;4.43;;;1.30;;
18883;SDS011;9574;47.282;9.640;2023-05-10T13:49:10;1.23;;;1.10;;
18883;SDS011;9574;47.282;9.640;2023-05-10T13:51:37;2.13;;;1.70;;
18883;SDS011;9574;47.282;9.640;2023-05-10T13:54:05;4.70;;;1.33;;
18883;SDS011;9574;47.282;9.640;2023-05-10T13:56:32;0.97;;;0.97;;
18883;SDS011;9574;47.282;9.640;2023-05-10T13:59:00;2.23;;;1.20;;
18883;SDS011;9574;47.282;9.640;2023-05-10T14:01:27;1.60;;;1.00;;
18883;SDS011;9574;47.282;9.640;2023-05-10T14:03:54;2.27;;;1.30;;
18883;SDS011;9574;47.282;9.640;2023-05-10T14:06:21;1.77;;;1.23;;
18883;SDS011;9574;47.282;9.640;2023-05-10T14:08:49;1.00;;;0.90;;
18883;SDS011;9574;47.282;9.640;2023-05-10T14:11:17;0.77;;;0.77;;
18883;SDS011;9574;47.282;9.640;2023-05-10T14:13:44;6.73;;;1.30;;
18883;SDS011;9574;47.282;9.640;2023-05-10T14:16:11;1.90;;;1.13;;
18883;SDS011;9574;47.282;9.640;2023-05-10T14:18:39;1.37;;;0.90;;
18883;SDS011;9574;47.282;9.640;2023-05-10T14:21:06;1.23;;;1.17;;
18883;SDS011;9574;47.282;9.640;2023-05-10T14:23:33;1.10;;;1.00;;
18883;SDS011;9574;47.282;9.640;2023-05-10T14:26:00;2.50;;;2.30;;
18883;SDS011;9574;47.282;9.640;2023-05-10T14:28:29;1.00;;;1.00;;
18883;SDS011;9574;47.282;9.640;2023-05-10T14:30:56;2.90;;;2.70;;
18883;SDS011;9574;47.282;9.640;2023-05-10T14:33:24;4.40;;;2.93;;
18883;SDS011;9574;47.282;9.640;2023-05-10T14:35:51;2.30;;;1.30;;
18883;SDS011;9574;47.282;9.640;2023-05-10T14:38:17;2.60;;;1.90;;
18883;SDS011;9574;47.282;9.640;2023-05-10T14:40:44;2.00;;;1.27;;
18883;SDS011;9574;47.282;9.640;2023-05-10T14:43:12;2.10;;;0.97;;
18883;SDS011;9574;47.282;9.640;2023-05-10T14:45:40;2.83;;;1.37;;
18883;SDS011;9574;47.282;9.640;2023-05-10T14:48:07;2.20;;;1.40;;
18883;SDS011;9574;47.282;9.640;2023-05-10T14:50:37;1.60;;;1.30;;
18883;SDS011;9574;47.282;9.640;2023-05-10T14:53:04;4.53;;;1.30;;
18883;SDS011;9574;47.282;9.640;2023-05-10T14:55:31;1.97;;;1.77;;
18883;SDS011;9574;47.282;9.640;2023-05-10T14:57:59;1.47;;;1.10;;
18883;SDS011;9574;47.282;9.640;2023-05-10T15:00:27;3.33;;;1.13;;
18883;SDS011;9574;47.282;9.640;2023-05-10T15:02:56;1.00;;;0.90;;
18883;SDS011;9574;47.282;9.640;2023-05-10T15:05:24;1.63;;;0.80;;
18883;SDS011;9574;47.282;9.640;2023-05-10T15:07:51;4.40;;;1.40;;
18883;SDS011;9574;47.282;9.640;2023-05-10T15:10:18;1.33;;;1.03;;
18883;SDS011;9574;47.282;9.640;2023-05-10T15:12:47;2.47;;;1.30;;
18883;SDS011;9574;47.282;9.640;2023-05-10T15:15:14;3.63;;;2.13;;
18883;SDS011;9574;47.282;9.640;2023-05-10T15:17:41;8.03;;;3.70;;